CPX957 Details

Departure: Chicago/Rockford International Airport (KRFD)
Arrival: Joint Base McGuire Dix Lakehurst (KWRI) at N/A
Route: QUOTE WHETT J64 LEPEW J518 AVERE J152 HAR HAR5
Notes: EMPTY | NON-REVENUE REPOSITIONING LEG


Current Weather Information
KRFD 251054Z 11006KT 10SM OVC047 15/12 A3017 RMK AO2 SLP216 T01500117
KWRI 251056Z AUTO 02009KT 10SM CLR 16/14 A3022 RMK AO2 SLP233 T01630139 $